createdAt,value
2022-08-17T00:00:42.758Z,73.62
2022-08-17T00:01:22.510Z,73.65
2022-08-17T00:01:57.325Z,74.02
2022-08-17T00:02:34.343Z,73.99
2022-08-17T00:03:19.691Z,73.94
2022-08-17T00:03:54.163Z,73.85
2022-08-17T00:04:25.512Z,73.67
2022-08-17T00:04:56.833Z,73.28
2022-08-17T00:05:31.268Z,73.89
2022-08-17T00:06:36.928Z,74.12
2022-08-17T00:07:08.280Z,73.75
2022-08-17T00:07:39.652Z,74.25
2022-08-17T00:08:31.347Z,73.47
2022-08-17T00:09:04.024Z,73.73
2022-08-17T00:09:35.364Z,73.39
2022-08-17T00:10:07.123Z,73.45
2022-08-17T00:10:38.704Z,73.88
2022-08-17T00:11:28.988Z,73.18
2022-08-17T00:12:50.265Z,74.11
2022-08-17T00:14:19.680Z,73.91
2022-08-17T00:14:51.014Z,74.32
2022-08-17T00:15:23.148Z,74.30
2022-08-17T00:15:58.568Z,74.42
2022-08-17T00:16:55.460Z,73.48
2022-08-17T00:17:25.368Z,73.90
2022-08-17T00:17:57.009Z,73.97
2022-08-17T00:19:01.551Z,73.43
2022-08-17T00:20:13.415Z,74.15
2022-08-17T00:20:46.553Z,73.82
2022-08-17T00:22:31.047Z,73.99
2022-08-17T00:22:35.626Z,74.11
2022-08-17T00:23:14.535Z,73.96
2022-08-17T00:23:48.988Z,73.74
2022-08-17T00:24:20.974Z,74.31
2022-08-17T00:24:52.355Z,74.52
2022-08-17T00:25:23.672Z,73.84
2022-08-17T00:25:55.148Z,74.24
2022-08-17T00:26:38.795Z,74.41
2022-08-17T00:27:16.315Z,74.13
2022-08-17T00:27:47.700Z,73.68
2022-08-17T00:28:19.731Z,74.29
2022-08-17T00:28:52.727Z,74.08
2022-08-17T00:29:24.100Z,74.15
2022-08-17T00:29:55.416Z,74.18
2022-08-17T00:30:26.788Z,73.39
2022-08-17T00:30:59.229Z,73.71
2022-08-17T00:31:30.868Z,74.01
2022-08-17T00:33:12.249Z,73.71
2022-08-17T00:33:15.572Z,73.74
2022-08-17T00:33:46.311Z,74.36
2022-08-17T00:34:17.886Z,74.58
2022-08-17T00:35:08.626Z,73.52
2022-08-17T00:35:40.094Z,74.35
2022-08-17T00:36:12.770Z,74.36
2022-08-17T00:36:44.106Z,73.93
2022-08-17T00:37:15.480Z,73.76
2022-08-17T00:37:46.796Z,74.59
2022-08-17T00:38:18.244Z,74.08
2022-08-17T00:38:50.331Z,73.87
2022-08-17T00:39:21.725Z,74.34
2022-08-17T00:39:53.184Z,74.46
2022-08-17T00:40:24.900Z,74.12
2022-08-17T00:40:59.784Z,73.92
2022-08-17T00:41:31.449Z,73.72
2022-08-17T00:42:16.040Z,73.96
2022-08-17T00:42:49.001Z,73.93
2022-08-17T00:43:36.015Z,73.89
2022-08-17T00:44:09.068Z,73.09
2022-08-17T00:44:40.432Z,73.72
2022-08-17T00:45:13.744Z,73.31
2022-08-17T00:45:46.479Z,73.63
2022-08-17T00:46:26.316Z,73.02
2022-08-17T00:46:57.664Z,73.21
2022-08-17T00:47:28.996Z,73.95
2022-08-17T00:48:00.343Z,73.43
2022-08-17T00:48:32.296Z,73.31
2022-08-17T00:49:55.644Z,74.13
2022-08-17T00:50:27.189Z,73.66
2022-08-17T00:51:28.397Z,73.34
2022-08-17T00:52:10.782Z,73.75
2022-08-17T00:52:50.571Z,73.66
2022-08-17T00:53:22.287Z,74.09
2022-08-17T00:54:56.916Z,73.33
2022-08-17T00:55:28.368Z,73.37
2022-08-17T00:56:02.883Z,73.45
2022-08-17T00:56:56.218Z,73.08
2022-08-17T00:57:40.125Z,73.12
2022-08-17T00:58:11.862Z,73.08
2022-08-17T00:58:43.468Z,73.15
2022-08-17T00:59:19.324Z,73.63
2022-08-17T01:00:03.061Z,73.32
2022-08-17T01:00:42.643Z,73.74
2022-08-17T01:01:21.701Z,73.48
2022-08-17T01:01:53.648Z,73.50
2022-08-17T01:03:21.208Z,73.38
2022-08-17T01:03:54.257Z,72.89
2022-08-17T01:04:31.395Z,72.87
2022-08-17T01:05:02.804Z,73.75
2022-08-17T01:05:54.205Z,73.54
2022-08-17T01:06:26.997Z,73.02
2022-08-17T01:06:59.056Z,73.59
2022-08-17T01:07:30.959Z,73.72
2022-08-17T01:08:02.593Z,73.27
2022-08-17T01:08:35.648Z,73.05
2022-08-17T01:09:25.340Z,73.71
2022-08-17T01:09:57.213Z,73.36
2022-08-17T01:10:59.457Z,73.33
2022-08-17T01:11:33.076Z,73.80
2022-08-17T01:12:07.816Z,73.30
2022-08-17T01:13:41.194Z,72.94
2022-08-17T01:14:14.111Z,73.25
2022-08-17T01:14:46.019Z,72.93
2022-08-17T01:15:37.364Z,73.35
2022-08-17T01:16:21.635Z,72.75
2022-08-17T01:16:55.084Z,73.18
2022-08-17T01:17:28.891Z,72.82
2022-08-17T01:18:19.052Z,72.42
2022-08-17T01:18:53.281Z,72.71
2022-08-17T01:19:30.654Z,72.52
2022-08-17T01:20:02.198Z,72.51
2022-08-17T01:20:43.148Z,72.49
2022-08-17T01:21:41.440Z,72.29
2022-08-17T01:22:12.729Z,72.30
2022-08-17T01:22:44.270Z,72.85
2022-08-17T01:23:21.226Z,72.31
2022-08-17T01:23:52.794Z,72.93
2022-08-17T01:24:24.643Z,72.04
2022-08-17T01:25:01.990Z,72.82
2022-08-17T01:25:33.325Z,72.27
2022-08-17T01:26:06.228Z,72.54
2022-08-17T01:26:39.837Z,72.37
2022-08-17T01:27:13.631Z,71.75
2022-08-17T01:28:55.793Z,72.73
2022-08-17T01:29:30.691Z,72.18
2022-08-17T01:30:06.835Z,72.39
2022-08-17T01:31:00.860Z,71.73
2022-08-17T01:31:39.359Z,71.72
2022-08-17T01:32:10.740Z,71.78
2022-08-17T01:32:42.193Z,71.49
2022-08-17T01:33:13.596Z,71.64
2022-08-17T01:34:42.315Z,71.82
2022-08-17T01:35:14.859Z,72.19
2022-08-17T01:35:46.412Z,72.52
2022-08-17T01:36:17.749Z,71.95
2022-08-17T01:36:49.875Z,72.48
2022-08-17T01:37:29.544Z,72.34
2022-08-17T01:38:00.902Z,71.92
2022-08-17T01:38:33.194Z,71.86
2022-08-17T01:39:09.461Z,72.67
2022-08-17T01:39:53.812Z,72.02
2022-08-17T01:40:39.036Z,72.02
2022-08-17T01:42:34.284Z,72.22
2022-08-17T01:43:10.458Z,72.12
2022-08-17T01:43:51.990Z,72.38
2022-08-17T01:44:23.640Z,72.27
2022-08-17T01:44:58.809Z,72.39
2022-08-17T01:45:33.772Z,72.50
2022-08-17T01:46:05.539Z,72.95
2022-08-17T01:46:37.263Z,72.29
2022-08-17T01:47:08.587Z,72.67
2022-08-17T01:47:41.571Z,72.12
2022-08-17T01:48:13.915Z,72.61
2022-08-17T01:48:47.354Z,72.90
2022-08-17T01:49:19.494Z,72.81
2022-08-17T01:49:50.839Z,73.22
2022-08-17T01:50:28.416Z,73.00
2022-08-17T01:51:00.816Z,73.22
2022-08-17T01:51:33.265Z,74.67
2022-08-17T01:52:08.225Z,74.64
2022-08-17T01:52:40.404Z,74.72
2022-08-17T01:53:36.636Z,74.33
2022-08-17T01:55:05.749Z,75.45
2022-08-17T01:55:43.225Z,75.52
2022-08-17T01:56:18.901Z,75.09
2022-08-17T01:56:51.826Z,76.11
2022-08-17T01:57:23.148Z,77.81
2022-08-17T01:58:13.416Z,76.69
2022-08-17T01:58:45.608Z,77.03
2022-08-17T01:59:18.569Z,77.36
2022-08-17T01:59:49.964Z,77.37
2022-08-17T02:00:21.825Z,77.32
2022-08-17T02:01:00.875Z,77.60
2022-08-17T02:01:34.560Z,78.20
2022-08-17T02:02:07.232Z,77.90
2022-08-17T02:02:39.892Z,78.18
2022-08-17T02:03:12.763Z,78.17
2022-08-17T02:03:53.419Z,78.30
2022-08-17T02:04:31.929Z,77.76
2022-08-17T02:05:04.151Z,78.73
2022-08-17T02:05:35.484Z,79.04
2022-08-17T02:06:21.031Z,79.14
2022-08-17T02:06:59.520Z,79.00
2022-08-17T02:07:31.934Z,78.66
2022-08-17T02:08:38.665Z,78.88
2022-08-17T02:09:16.635Z,78.91
2022-08-17T02:09:52.597Z,78.66
2022-08-17T02:10:24.216Z,78.68
2022-08-17T02:11:14.463Z,79.11
2022-08-17T02:11:46.239Z,79.11
2022-08-17T02:12:38.778Z,80.00
2022-08-17T02:13:09.431Z,78.92
2022-08-17T02:13:41.022Z,79.05
2022-08-17T02:14:31.182Z,78.22
2022-08-17T02:15:02.532Z,78.39
2022-08-17T02:15:35.023Z,78.98
2022-08-17T02:16:06.723Z,78.36
2022-08-17T02:16:40.363Z,78.95
2022-08-17T02:17:11.863Z,77.84
2022-08-17T02:17:43.200Z,77.82
2022-08-17T02:18:15.606Z,77.74
2022-08-17T02:19:05.889Z,78.20
2022-08-17T02:19:37.208Z,79.08
2022-08-17T02:20:10.036Z,79.00
2022-08-17T02:20:42.958Z,79.14
2022-08-17T02:21:32.863Z,78.79
2022-08-17T02:22:05.068Z,78.85
2022-08-17T02:22:39.495Z,78.53
2022-08-17T02:23:12.980Z,77.81
2022-08-17T02:23:47.376Z,78.95
2022-08-17T02:24:59.440Z,78.44
2022-08-17T02:25:21.814Z,77.38
2022-08-17T02:25:55.339Z,77.59
2022-08-17T02:26:26.849Z,77.52
2022-08-17T02:26:58.267Z,77.46
2022-08-17T02:27:30.209Z,77.69
2022-08-17T02:28:50.937Z,78.38
2022-08-17T02:29:22.903Z,77.91
2022-08-17T02:29:54.326Z,78.53
2022-08-17T02:31:01.767Z,77.73
2022-08-17T02:31:35.457Z,77.42
2022-08-17T02:32:27.957Z,77.17
2022-08-17T02:33:00.417Z,78.10
2022-08-17T02:33:41.521Z,77.22
2022-08-17T02:34:15.567Z,77.06
2022-08-17T02:34:47.303Z,77.38
2022-08-17T02:35:20.089Z,76.82
2022-08-17T02:35:53.585Z,76.60
2022-08-17T02:36:27.426Z,77.22
2022-08-17T02:36:58.943Z,77.47
2022-08-17T02:37:31.478Z,77.17
2022-08-17T02:38:04.920Z,77.65
2022-08-17T02:38:37.383Z,78.03
2022-08-17T02:39:11.587Z,77.35
2022-08-17T02:39:44.560Z,77.05
2022-08-17T02:40:16.855Z,77.17
2022-08-17T02:41:05.084Z,77.19
2022-08-17T02:41:37.407Z,77.53
2022-08-17T02:42:08.920Z,77.32
2022-08-17T02:42:42.024Z,76.48
2022-08-17T02:43:13.647Z,77.01
2022-08-17T02:43:45.235Z,76.58
2022-08-17T02:44:38.873Z,77.20
2022-08-17T02:45:15.163Z,75.96
2022-08-17T02:45:46.543Z,76.18
2022-08-17T02:46:19.420Z,76.25
2022-08-17T02:46:51.026Z,76.74
2022-08-17T02:47:22.586Z,77.00
2022-08-17T02:47:54.045Z,76.34
2022-08-17T02:48:28.044Z,77.01
2022-08-17T02:49:04.346Z,76.09
2022-08-17T02:49:38.502Z,76.16
2022-08-17T02:50:12.189Z,76.72
2022-08-17T02:50:43.512Z,76.81
2022-08-17T02:51:15.274Z,76.29
2022-08-17T02:51:47.233Z,75.98
2022-08-17T02:52:18.736Z,76.59
2022-08-17T02:53:10.045Z,76.53
2022-08-17T02:53:41.378Z,76.55
2022-08-17T02:54:40.659Z,77.04
2022-08-17T02:55:06.675Z,76.88
2022-08-17T02:55:40.372Z,76.88
2022-08-17T02:56:11.715Z,76.84
2022-08-17T02:56:43.484Z,77.15
2022-08-17T02:57:14.931Z,77.07
2022-08-17T02:58:04.996Z,76.06
2022-08-17T02:58:36.417Z,76.40
2022-08-17T02:59:07.755Z,76.87
2022-08-17T02:59:39.675Z,77.10
2022-08-17T03:00:15.921Z,77.15
2022-08-17T03:00:48.187Z,76.95
2022-08-17T03:01:20.208Z,76.84
2022-08-17T03:01:51.959Z,76.57
2022-08-17T03:02:41.707Z,76.94
2022-08-17T03:03:18.579Z,77.13
2022-08-17T03:04:08.660Z,76.98
2022-08-17T03:04:40.089Z,76.66
2022-08-17T03:05:15.859Z,76.68
2022-08-17T03:05:49.344Z,76.52
2022-08-17T03:06:39.088Z,77.16
2022-08-17T03:07:10.428Z,77.02
2022-08-17T03:07:42.300Z,77.30
2022-08-17T03:08:14.873Z,77.43
2022-08-17T03:08:46.200Z,77.04
2022-08-17T03:09:17.536Z,76.72
2022-08-17T03:09:48.884Z,77.13
2022-08-17T03:10:21.554Z,77.44
2022-08-17T03:10:53.183Z,77.28
2022-08-17T03:11:24.596Z,77.65
2022-08-17T03:12:04.843Z,77.08
2022-08-17T03:12:38.652Z,76.87
2022-08-17T03:13:29.043Z,76.66
2022-08-17T03:14:00.391Z,77.01
2022-08-17T03:14:32.359Z,76.62
2022-08-17T03:15:23.627Z,76.90
2022-08-17T03:15:55.002Z,77.03
2022-08-17T03:16:26.476Z,76.52
2022-08-17T03:16:59.043Z,77.10
2022-08-17T03:17:30.422Z,77.25
2022-08-17T03:18:03.632Z,76.38
2022-08-17T03:18:35.154Z,76.70
2022-08-17T03:19:06.492Z,76.60
2022-08-17T03:19:39.694Z,76.64
2022-08-17T03:20:16.141Z,76.32
2022-08-17T03:20:47.552Z,76.12
2022-08-17T03:21:37.787Z,76.67
2022-08-17T03:22:36.277Z,76.33
2022-08-17T03:23:01.896Z,76.68
2022-08-17T03:23:54.476Z,76.39
2022-08-17T03:24:28.736Z,76.48
2022-08-17T03:25:19.488Z,76.40
2022-08-17T03:25:54.895Z,76.72
2022-08-17T03:26:29.823Z,76.59
2022-08-17T03:27:01.286Z,76.23
2022-08-17T03:27:32.920Z,76.86
2022-08-17T03:28:05.924Z,76.84
2022-08-17T03:28:38.604Z,76.33
2022-08-17T03:29:10.311Z,76.87
2022-08-17T03:29:41.619Z,76.16
2022-08-17T03:31:02.955Z,76.46
2022-08-17T03:31:34.281Z,76.19
2022-08-17T03:32:16.212Z,76.71
2022-08-17T03:33:07.047Z,76.63
2022-08-17T03:33:38.403Z,76.36
2022-08-17T03:34:09.722Z,76.59
2022-08-17T03:34:41.585Z,75.92
2022-08-17T03:35:16.433Z,75.84
2022-08-17T03:35:50.447Z,75.88
2022-08-17T03:36:22.195Z,76.70
2022-08-17T03:36:53.540Z,75.67
2022-08-17T03:37:24.927Z,75.98
2022-08-17T03:38:00.941Z,76.27
2022-08-17T03:38:39.327Z,76.32
2022-08-17T03:39:10.995Z,75.96
2022-08-17T03:39:43.511Z,76.21
2022-08-17T03:40:15.510Z,75.71
2022-08-17T03:41:07.156Z,76.57
2022-08-17T03:41:39.039Z,76.49
2022-08-17T03:42:31.954Z,76.58
2022-08-17T03:43:07.043Z,75.58
2022-08-17T03:43:38.424Z,75.86
2022-08-17T03:44:09.801Z,75.93
2022-08-17T03:44:41.163Z,75.81
2022-08-17T03:45:16.693Z,75.80
2022-08-17T03:46:34.215Z,76.54
2022-08-17T03:47:24.767Z,76.96
2022-08-17T03:48:14.513Z,76.10
2022-08-17T03:49:04.142Z,76.20
2022-08-17T03:49:53.728Z,76.67
2022-08-17T03:50:44.160Z,76.76
2022-08-17T03:51:42.653Z,75.79
2022-08-17T03:52:32.477Z,75.86
2022-08-17T03:53:27.094Z,76.59
2022-08-17T03:54:17.864Z,76.65
2022-08-17T03:55:35.749Z,75.98
2022-08-17T03:56:27.047Z,75.88
2022-08-17T03:57:08.911Z,76.66
2022-08-17T03:57:40.503Z,76.41
2022-08-17T03:58:30.860Z,75.78
2022-08-17T03:59:02.185Z,76.43
2022-08-17T03:59:34.772Z,75.96
2022-08-17T04:00:25.869Z,76.60
2022-08-17T04:00:57.347Z,76.15
2022-08-17T04:01:30.859Z,76.67
2022-08-17T04:02:08.905Z,76.79
2022-08-17T04:02:42.784Z,76.11
2022-08-17T04:03:33.020Z,76.85
2022-08-17T04:04:05.312Z,76.68
2022-08-17T04:04:37.676Z,76.76
2022-08-17T04:05:09.495Z,76.13
2022-08-17T04:05:41.559Z,76.60
2022-08-17T04:07:01.662Z,76.15
2022-08-17T04:07:33.048Z,76.68
2022-08-17T04:08:05.349Z,76.76
2022-08-17T04:08:36.837Z,76.41
2022-08-17T04:09:09.341Z,76.70
2022-08-17T04:09:40.670Z,75.69
2022-08-17T04:10:12.051Z,76.06
2022-08-17T04:10:45.034Z,76.43
2022-08-17T04:11:16.703Z,76.09
2022-08-17T04:11:48.049Z,76.03
2022-08-17T04:12:21.858Z,76.49
2022-08-17T04:13:43.482Z,76.08
2022-08-17T04:14:14.844Z,76.07
2022-08-17T04:14:53.637Z,76.08
2022-08-17T04:15:25.991Z,75.91
2022-08-17T04:15:59.135Z,75.72
2022-08-17T04:16:30.759Z,75.97
2022-08-17T04:17:02.451Z,76.04
2022-08-17T04:17:33.811Z,75.44
2022-08-17T04:18:07.345Z,76.28
2022-08-17T04:18:38.874Z,76.16
2022-08-17T04:19:10.268Z,75.98
2022-08-17T04:19:41.596Z,76.33
2022-08-17T04:20:15.002Z,76.23
2022-08-17T04:20:46.379Z,76.14
2022-08-17T04:21:19.163Z,76.15
2022-08-17T04:21:50.508Z,75.90
2022-08-17T04:22:32.024Z,76.59
2022-08-17T04:23:10.633Z,76.17
2022-08-17T04:23:42.080Z,76.22
2022-08-17T04:24:14.211Z,75.91
2022-08-17T04:24:45.530Z,76.02
2022-08-17T04:25:18.425Z,76.43
2022-08-17T04:25:51.043Z,75.91
2022-08-17T04:26:52.801Z,75.68
2022-08-17T04:27:14.101Z,76.70
2022-08-17T04:27:45.502Z,75.94
2022-08-17T04:28:18.811Z,75.88
2022-08-17T04:28:50.769Z,76.42
2022-08-17T04:29:22.233Z,76.41
2022-08-17T04:30:11.902Z,76.43
2022-08-17T04:30:45.047Z,76.29
2022-08-17T04:31:16.853Z,76.86
2022-08-17T04:31:48.576Z,76.15
2022-08-17T04:33:00.578Z,76.61
2022-08-17T04:33:17.452Z,76.44
2022-08-17T04:33:48.811Z,75.95
2022-08-17T04:34:20.177Z,75.94
2022-08-17T04:34:53.679Z,76.79
2022-08-17T04:35:48.818Z,76.58
2022-08-17T04:36:20.162Z,76.08
2022-08-17T04:36:52.548Z,77.12
2022-08-17T04:37:23.881Z,77.34
2022-08-17T04:37:55.223Z,77.20
2022-08-17T04:38:29.686Z,77.52
2022-08-17T04:39:01.740Z,77.44
2022-08-17T04:39:33.972Z,77.44
2022-08-17T04:40:25.924Z,76.94
2022-08-17T04:41:17.741Z,77.53
2022-08-17T04:42:07.001Z,77.94
2022-08-17T04:42:38.316Z,76.86
2022-08-17T04:43:12.695Z,77.51
2022-08-17T04:43:45.592Z,77.94
2022-08-17T04:44:27.260Z,77.88
2022-08-17T04:45:08.646Z,77.64
2022-08-17T04:45:55.556Z,78.08
2022-08-17T04:46:34.032Z,78.53
2022-08-17T04:47:07.052Z,78.39
2022-08-17T04:47:41.940Z,78.62
2022-08-17T04:48:14.408Z,78.09
2022-08-17T04:48:51.051Z,78.36
2022-08-17T04:49:22.657Z,78.48
2022-08-17T04:49:53.967Z,79.08
2022-08-17T04:50:25.308Z,78.88
2022-08-17T04:50:59.879Z,78.50
2022-08-17T04:51:34.244Z,79.29
2022-08-17T04:52:05.623Z,79.14
2022-08-17T04:52:45.970Z,78.15
2022-08-17T04:53:19.466Z,79.96
2022-08-17T04:54:42.500Z,78.64
2022-08-17T04:55:15.098Z,79.11
2022-08-17T04:56:36.011Z,79.67
2022-08-17T04:57:07.345Z,80.20
2022-08-17T04:57:44.547Z,79.95
2022-08-17T04:58:16.492Z,79.72
2022-08-17T04:58:52.531Z,80.02
2022-08-17T04:59:23.883Z,80.27
2022-08-17T05:00:32.787Z,80.76
2022-08-17T05:01:05.731Z,80.54
2022-08-17T05:01:56.270Z,80.29
2022-08-17T05:02:27.586Z,80.41
2022-08-17T05:02:59.284Z,81.63
2022-08-17T05:03:30.915Z,80.53
2022-08-17T05:04:20.840Z,81.25
2022-08-17T05:05:16.804Z,81.31
2022-08-17T05:05:50.112Z,81.23
2022-08-17T05:06:22.453Z,80.41
2022-08-17T05:06:55.579Z,81.26
2022-08-17T05:07:30.939Z,81.17
2022-08-17T05:08:05.371Z,80.66
2022-08-17T05:08:38.728Z,81.48
2022-08-17T05:09:10.457Z,81.32
2022-08-17T05:09:41.795Z,81.70
2022-08-17T05:10:13.443Z,81.65
2022-08-17T05:10:45.916Z,81.20
2022-08-17T05:11:17.911Z,81.25
2022-08-17T05:12:07.880Z,81.20
2022-08-17T05:12:39.226Z,81.70
2022-08-17T05:13:15.470Z,81.07
2022-08-17T05:13:49.949Z,81.40
2022-08-17T05:15:15.876Z,81.29
2022-08-17T05:15:49.044Z,81.97
2022-08-17T05:16:22.000Z,81.07
2022-08-17T05:16:53.335Z,82.13
2022-08-17T05:17:24.655Z,81.67
2022-08-17T05:17:56.152Z,81.50
2022-08-17T05:18:29.183Z,81.84
2022-08-17T05:19:00.683Z,81.50
2022-08-17T05:19:32.005Z,81.48
2022-08-17T05:20:03.956Z,81.31
2022-08-17T05:20:36.928Z,81.77
2022-08-17T05:21:08.351Z,80.78
2022-08-17T05:21:39.733Z,80.54
2022-08-17T05:22:11.047Z,81.18
2022-08-17T05:22:51.040Z,81.26
2022-08-17T05:23:25.443Z,81.06
2022-08-17T05:23:58.475Z,81.09
2022-08-17T05:24:42.919Z,81.15
2022-08-17T05:25:52.446Z,80.89
2022-08-17T05:26:26.723Z,81.07
2022-08-17T05:27:02.588Z,81.73
2022-08-17T05:27:38.060Z,81.22
2022-08-17T05:28:13.140Z,81.79
2022-08-17T05:28:44.723Z,81.04
2022-08-17T05:29:18.724Z,81.69
2022-08-17T05:29:50.097Z,81.91
2022-08-17T05:30:22.487Z,82.12
2022-08-17T05:30:55.956Z,82.17
2022-08-17T05:32:38.550Z,81.08
2022-08-17T05:33:14.763Z,81.85
2022-08-17T05:33:46.336Z,81.80
2022-08-17T05:34:17.750Z,81.74
2022-08-17T05:34:49.080Z,80.82
2022-08-17T05:35:21.060Z,80.81
2022-08-17T05:35:55.081Z,81.56
2022-08-17T05:36:42.517Z,81.60
2022-08-17T05:38:05.081Z,80.77
2022-08-17T05:38:36.900Z,80.98
2022-08-17T05:39:08.255Z,81.42
2022-08-17T05:39:47.036Z,80.54
2022-08-17T05:40:20.699Z,80.55
2022-08-17T05:40:53.484Z,80.87
2022-08-17T05:41:24.803Z,80.86
2022-08-17T05:41:56.117Z,80.17
2022-08-17T05:42:27.448Z,80.67
2022-08-17T05:43:06.366Z,80.96
2022-08-17T05:43:57.605Z,80.41
2022-08-17T05:44:28.931Z,80.20
2022-08-17T05:45:00.539Z,80.00
2022-08-17T05:45:54.856Z,79.89
2022-08-17T05:47:18.192Z,80.43
2022-08-17T05:47:49.508Z,80.27
2022-08-17T05:48:20.988Z,80.90
2022-08-17T05:49:08.017Z,80.87
2022-08-17T05:49:39.637Z,80.90
2022-08-17T05:50:29.857Z,80.52
2022-08-17T05:51:23.671Z,79.74
2022-08-17T05:52:21.911Z,80.70
2022-08-17T05:53:18.824Z,80.72
2022-08-17T05:55:15.142Z,79.83
2022-08-17T05:55:56.637Z,80.52
2022-08-17T05:56:38.781Z,80.37
2022-08-17T05:57:35.903Z,80.85
2022-08-17T05:58:29.347Z,79.76
2022-08-17T05:59:17.882Z,80.57
2022-08-17T06:00:20.772Z,80.36
2022-08-17T06:01:29.501Z,80.25
2022-08-17T06:02:19.041Z,79.51
2022-08-17T06:03:12.032Z,79.68
2022-08-17T06:03:49.409Z,79.97
2022-08-17T06:04:30.944Z,79.91
2022-08-17T06:05:11.184Z,79.19
2022-08-17T06:06:17.020Z,79.00
2022-08-17T06:06:57.516Z,79.15
2022-08-17T06:07:40.815Z,79.63
2022-08-17T06:09:43.702Z,79.32
2022-08-17T06:10:38.871Z,79.13
2022-08-17T06:12:43.586Z,79.48
2022-08-17T06:13:54.280Z,79.73
2022-08-17T06:16:33.859Z,79.38
2022-08-17T06:17:12.527Z,79.07
2022-08-17T06:17:44.512Z,79.58
2022-08-17T06:18:19.210Z,79.58
2022-08-17T06:19:14.707Z,79.13
2022-08-17T06:19:52.696Z,79.32
2022-08-17T06:20:27.741Z,79.21
2022-08-17T06:21:03.524Z,79.03
2022-08-17T06:21:39.332Z,79.75
2022-08-17T06:22:15.134Z,79.48
2022-08-17T06:22:50.729Z,80.09
2022-08-17T06:23:41.551Z,79.29
2022-08-17T06:24:34.094Z,79.16
2022-08-17T06:25:29.850Z,79.50
2022-08-17T06:26:17.432Z,79.44
2022-08-17T06:26:50.244Z,79.36
2022-08-17T06:27:53.497Z,79.17
2022-08-17T06:28:38.742Z,79.60
2022-08-17T06:29:58.734Z,79.09
2022-08-17T06:30:59.583Z,78.95
2022-08-17T06:31:31.248Z,79.84
2022-08-17T06:32:05.003Z,79.97
2022-08-17T06:32:38.315Z,80.59
2022-08-17T06:33:19.210Z,81.03
2022-08-17T06:33:50.548Z,80.17
2022-08-17T06:34:21.946Z,80.93
2022-08-17T06:34:53.692Z,81.22
2022-08-17T06:35:39.365Z,81.17
2022-08-17T06:36:41.553Z,80.18
2022-08-17T06:37:12.840Z,80.63
2022-08-17T06:38:04.576Z,81.16
2022-08-17T06:38:54.689Z,80.45
2022-08-17T06:39:42.691Z,80.67
2022-08-17T06:42:00.666Z,80.54
2022-08-17T06:42:55.125Z,81.28
2022-08-17T06:44:55.298Z,81.49
2022-08-17T06:45:39.640Z,81.22
2022-08-17T06:46:42.456Z,81.38
2022-08-17T06:47:58.695Z,80.82
2022-08-17T06:48:48.538Z,81.43
2022-08-17T06:50:01.297Z,81.48
2022-08-17T06:50:59.917Z,80.80
2022-08-17T06:51:38.111Z,80.72
2022-08-17T06:52:46.943Z,81.47
2022-08-17T06:53:31.794Z,80.77
2022-08-17T06:54:06.736Z,80.99
2022-08-17T06:54:47.084Z,80.64
2022-08-17T06:55:38.304Z,80.49
2022-08-17T06:56:13.638Z,81.15
2022-08-17T06:56:59.479Z,81.05
2022-08-17T06:57:35.105Z,81.09
2022-08-17T06:58:16.267Z,81.84
2022-08-17T06:58:48.228Z,80.89
2022-08-17T06:59:26.138Z,80.68
2022-08-17T07:01:00.872Z,81.29
2022-08-17T07:01:36.743Z,81.03
2022-08-17T07:02:10.896Z,81.63
2022-08-17T07:02:59.476Z,80.38
2022-08-17T07:03:38.608Z,80.17
2022-08-17T07:04:19.075Z,80.73
2022-08-17T07:04:51.645Z,80.54
2022-08-17T07:05:42.760Z,80.47
2022-08-17T07:06:18.273Z,81.11
2022-08-17T07:06:58.871Z,80.74
2022-08-17T07:08:04.171Z,81.10
2022-08-17T07:08:52.809Z,80.77
2022-08-17T07:09:37.797Z,80.75
2022-08-17T07:10:10.748Z,80.62
2022-08-17T07:10:53.672Z,80.40
2022-08-17T07:11:48.962Z,80.56
2022-08-17T07:12:24.986Z,80.83
2022-08-17T07:13:06.410Z,80.48
2022-08-17T07:13:59.739Z,80.99
2022-08-17T07:15:10.153Z,81.34
2022-08-17T07:15:42.835Z,81.21
2022-08-17T07:16:59.039Z,80.86
2022-08-17T07:17:46.731Z,80.77
2022-08-17T07:18:20.806Z,81.10
2022-08-17T07:18:54.735Z,81.09
2022-08-17T07:19:31.453Z,80.75
2022-08-17T07:20:09.144Z,80.75
2022-08-17T07:21:04.776Z,80.42
2022-08-17T07:22:03.692Z,80.68
2022-08-17T07:23:00.786Z,80.87
2022-08-17T07:23:46.723Z,81.10
2022-08-17T07:24:47.085Z,80.99
2022-08-17T07:25:20.915Z,80.31
2022-08-17T07:25:52.489Z,80.13
2022-08-17T07:26:24.188Z,80.09
2022-08-17T07:27:14.443Z,80.74
2022-08-17T07:27:53.097Z,80.70
2022-08-17T07:28:27.744Z,80.54
2022-08-17T07:28:59.589Z,80.25
2022-08-17T07:29:33.035Z,80.42
2022-08-17T07:30:10.562Z,80.53
2022-08-17T07:30:50.752Z,80.00
2022-08-17T07:31:24.964Z,80.09
2022-08-17T07:31:57.346Z,80.61
2022-08-17T07:32:42.956Z,80.18
2022-08-17T07:33:25.628Z,79.75
2022-08-17T07:34:14.398Z,79.85
2022-08-17T07:35:11.155Z,79.96
2022-08-17T07:36:02.300Z,80.17
2022-08-17T07:36:52.747Z,80.14
2022-08-17T07:37:24.079Z,79.95
2022-08-17T07:38:25.394Z,80.62
2022-08-17T07:38:58.228Z,80.37
2022-08-17T07:39:30.205Z,80.62
2022-08-17T07:40:17.063Z,80.14
2022-08-17T07:42:01.357Z,80.58
2022-08-17T07:42:34.392Z,80.73
2022-08-17T07:43:15.601Z,81.30
2022-08-17T07:43:53.721Z,81.05
2022-08-17T07:44:25.101Z,80.76
2022-08-17T07:44:56.523Z,81.71
2022-08-17T07:45:46.737Z,81.08
2022-08-17T07:46:42.180Z,81.95
2022-08-17T07:47:34.332Z,81.59
2022-08-17T07:48:21.588Z,82.01
2022-08-17T07:49:15.611Z,81.81
2022-08-17T07:50:25.962Z,81.50
2022-08-17T07:51:00.048Z,82.99
2022-08-17T07:51:50.383Z,82.85
2022-08-17T07:52:48.196Z,82.23
2022-08-17T07:53:25.992Z,82.23
2022-08-17T07:54:22.204Z,82.82
2022-08-17T07:54:54.372Z,82.83
2022-08-17T07:55:32.685Z,82.40
2022-08-17T07:56:04.885Z,82.15
2022-08-17T07:56:37.852Z,83.11
2022-08-17T07:57:12.696Z,83.00
2022-08-17T07:57:55.984Z,82.91
2022-08-17T07:58:45.968Z,82.06
2022-08-17T07:59:20.459Z,82.80
2022-08-17T08:00:23.777Z,82.36
2022-08-17T08:01:15.268Z,82.64
2022-08-17T08:01:56.259Z,82.95
2022-08-17T08:02:38.129Z,83.34
2022-08-17T08:03:21.678Z,83.50
2022-08-17T08:03:55.036Z,82.08
2022-08-17T08:04:58.835Z,82.38
2022-08-17T08:05:49.237Z,82.61
2022-08-17T08:06:24.985Z,83.28
2022-08-17T08:06:59.505Z,83.33
2022-08-17T08:07:46.350Z,82.64
2022-08-17T08:08:30.928Z,82.72
2022-08-17T08:09:20.701Z,83.44
2022-08-17T08:10:07.324Z,83.48
2022-08-17T08:10:45.584Z,83.64
2022-08-17T08:11:31.616Z,83.32
2022-08-17T08:12:33.405Z,82.85
2022-08-17T08:13:22.700Z,82.52
2022-08-17T08:13:54.036Z,82.39
2022-08-17T08:14:29.616Z,83.09
2022-08-17T08:15:22.381Z,82.62
2022-08-17T08:15:56.553Z,82.56
2022-08-17T08:16:31.308Z,81.87
2022-08-17T08:17:06.289Z,82.27
2022-08-17T08:17:51.728Z,82.29
2022-08-17T08:18:55.715Z,82.11
2022-08-17T08:19:30.976Z,82.22
2022-08-17T08:20:50.957Z,81.08
2022-08-17T08:21:12.549Z,81.23
2022-08-17T08:21:56.339Z,80.34
2022-08-17T08:22:45.791Z,79.25
2022-08-17T08:23:31.688Z,78.18
2022-08-17T08:24:34.651Z,78.52
2022-08-17T08:25:24.225Z,77.85
2022-08-17T08:26:26.384Z,78.59
2022-08-17T08:27:33.447Z,78.13
2022-08-17T08:28:37.304Z,75.93
2022-08-17T08:29:47.268Z,76.53
2022-08-17T08:30:39.871Z,76.71
2022-08-17T08:31:46.232Z,75.47
2022-08-17T08:33:32.386Z,75.13
2022-08-17T08:34:46.335Z,75.77
2022-08-17T08:35:29.502Z,75.46
2022-08-17T08:37:02.099Z,73.87
2022-08-17T08:37:35.524Z,73.26
2022-08-17T08:38:17.607Z,72.83
2022-08-17T08:39:04.589Z,72.81
2022-08-17T08:40:14.098Z,73.07
2022-08-17T08:40:57.288Z,74.00
2022-08-17T08:41:50.299Z,74.00
2022-08-17T08:42:41.936Z,73.85
2022-08-17T08:43:30.911Z,73.92
2022-08-17T08:44:12.805Z,74.42
2022-08-17T08:45:04.151Z,73.42
2022-08-17T08:45:51.800Z,74.21
2022-08-17T08:46:25.781Z,73.58
2022-08-17T08:47:18.167Z,73.17
2022-08-17T08:48:53.344Z,73.46
2022-08-17T08:50:03.530Z,73.63
2022-08-17T08:50:59.836Z,73.92
2022-08-17T08:52:02.496Z,73.68
2022-08-17T08:52:48.731Z,74.04
2022-08-17T08:53:36.102Z,73.53
2022-08-17T08:54:27.258Z,73.46
2022-08-17T08:55:23.473Z,73.00
2022-08-17T08:56:21.367Z,72.19
2022-08-17T08:57:22.377Z,72.49
2022-08-17T08:58:32.007Z,71.57
2022-08-17T08:59:25.458Z,72.82
2022-08-17T09:00:15.312Z,73.33